WZZ127 EDDM-EDDH
Flight info
| Callsign | WZZ127 |
|---|---|
| Flight time | N/A |
| Altitude | 36000 |
| Route | INPUD3Q/08L INPUD Y102 UPALA M726 NARUS DCT ABGUS DCT DIRBO/N0393F230 T902 RARUP RARUP6A |
| Aircraft | A20N/M-SDE2E3FGHIRWXY/LB1 |
Departure
| Time | 2026-04-30 18:16 |
|---|---|
| Airport | Munich Airport (EDDM) |
Arrival
| Time | N/A |
|---|---|
| Airport | Hamburg Helmut Schmidt Airport (EDDH) |
| Time | Latitude | Longitude | Altitude | Speed | Heading |
|---|---|---|---|---|---|
| 2026-04-30 17:55 | 48.35612 | 11.79703 | 1470 ft | 0 kts | 84° |
| 2026-04-30 18:03 | 48.35610 | 11.79679 | 1463 ft | 2 kts | 84° |
| 2026-04-30 18:04 | 48.35604 | 11.79603 | 1465 ft | 3 kts | 65° |
| 2026-04-30 18:05 | 48.35565 | 11.79575 | 1468 ft | 0 kts | 349° |
| 2026-04-30 18:06 | 48.35566 | 11.79575 | 1468 ft | 1 kts | 349° |
| 2026-04-30 18:07 | 48.35868 | 11.79512 | 1468 ft | 12 kts | 333° |
| 2026-04-30 18:08 | 48.35899 | 11.79445 | 1462 ft | 0 kts | 295° |
| 2026-04-30 18:09 | 48.35921 | 11.79358 | 1462 ft | 0 kts | 332° |
| 2026-04-30 18:11 | 48.36015 | 11.79327 | 1466 ft | 12 kts | 353° |
| 2026-04-30 18:11 | 48.36071 | 11.79037 | 1471 ft | 17 kts | 263° |
| 2026-04-30 18:12 | 48.36013 | 11.78246 | 1470 ft | 30 kts | 264° |
| 2026-04-30 18:13 | 48.35961 | 11.77629 | 1461 ft | 28 kts | 265° |
| 2026-04-30 18:13 | 48.35973 | 11.77006 | 1467 ft | 16 kts | 315° |
| 2026-04-30 18:14 | 48.36092 | 11.76961 | 1461 ft | 5 kts | 352° |
| 2026-04-30 18:15 | 48.36145 | 11.76950 | 1465 ft | 4 kts | 352° |
| 2026-04-30 18:15 | 48.36299 | 11.77073 | 1470 ft | 11 kts | 78° |
| 2026-04-30 18:16 | 48.36407 | 11.78380 | 1466 ft | 126 kts | 83° |
| 2026-04-30 18:16 | 48.36653 | 11.81697 | 2150 ft | 166 kts | 84° |
| 2026-04-30 18:17 | 48.36749 | 11.83489 | 2635 ft | 179 kts | 84° |
| 2026-04-30 18:17 | 48.37114 | 11.85355 | 3006 ft | 200 kts | 53° |
| 2026-04-30 18:17 | 48.39916 | 11.86809 | 3509 ft | 244 kts | 1° |
| 2026-04-30 18:18 | 48.41655 | 11.86513 | 3968 ft | 260 kts | 336° |
| 2026-04-30 18:18 | 48.43089 | 11.84852 | 4858 ft | 263 kts | 311° |
| 2026-04-30 18:18 | 48.44254 | 11.82712 | 5814 ft | 266 kts | 308° |
| 2026-04-30 18:18 | 48.45400 | 11.80529 | 6758 ft | 270 kts | 308° |
| 2026-04-30 18:19 | 48.46585 | 11.78319 | 7728 ft | 273 kts | 309° |
| 2026-04-30 18:19 | 48.47796 | 11.76082 | 8654 ft | 277 kts | 309° |
| 2026-04-30 18:19 | 48.49047 | 11.73843 | 9557 ft | 281 kts | 310° |
| 2026-04-30 18:19 | 48.50476 | 11.71770 | 10362 ft | 290 kts | 322° |
| 2026-04-30 18:20 | 48.52222 | 11.70031 | 10737 ft | 313 kts | 329° |
| 2026-04-30 18:20 | 48.54220 | 11.68420 | 11075 ft | 336 kts | 333° |
| 2026-04-30 18:20 | 48.55643 | 11.67407 | 11434 ft | 345 kts | 335° |
| 2026-04-30 18:20 | 48.57872 | 11.65923 | 12182 ft | 352 kts | 336° |
| 2026-04-30 18:21 | 48.60138 | 11.64454 | 12973 ft | 357 kts | 336° |
| 2026-04-30 18:21 | 48.62432 | 11.62962 | 13761 ft | 361 kts | 336° |
| 2026-04-30 18:21 | 48.64751 | 11.61430 | 14541 ft | 365 kts | 335° |
| 2026-04-30 18:21 | 48.67086 | 11.59862 | 15312 ft | 370 kts | 335° |
| 2026-04-30 18:22 | 48.69446 | 11.58257 | 16053 ft | 374 kts | 335° |
| 2026-04-30 18:22 | 48.74222 | 11.54977 | 17467 ft | 382 kts | 335° |
| 2026-04-30 18:22 | 48.76655 | 11.53297 | 18146 ft | 386 kts | 335° |
| 2026-04-30 18:23 | 48.79120 | 11.51633 | 18793 ft | 390 kts | 338° |
| 2026-04-30 18:23 | 48.81733 | 11.50473 | 19419 ft | 394 kts | 347° |
| 2026-04-30 18:23 | 48.84448 | 11.49739 | 20038 ft | 398 kts | 351° |
| 2026-04-30 18:23 | 48.87216 | 11.49207 | 20620 ft | 402 kts | 353° |
| 2026-04-30 18:24 | 48.92850 | 11.48433 | 21745 ft | 410 kts | 355° |
| 2026-04-30 18:24 | 48.95670 | 11.48088 | 22279 ft | 413 kts | 355° |
| 2026-04-30 18:24 | 48.98550 | 11.47729 | 22803 ft | 417 kts | 354° |
| 2026-04-30 18:25 | 49.01449 | 11.47355 | 23322 ft | 420 kts | 354° |
| 2026-04-30 18:25 | 49.07314 | 11.46530 | 24307 ft | 426 kts | 353° |
| 2026-04-30 18:25 | 49.10276 | 11.46095 | 24768 ft | 430 kts | 354° |
| 2026-04-30 18:26 | 49.16262 | 11.45273 | 24999 ft | 432 kts | 354° |
| 2026-04-30 18:26 | 49.19256 | 11.44869 | 25035 ft | 433 kts | 354° |
| 2026-04-30 18:26 | 49.22265 | 11.44459 | 25391 ft | 436 kts | 354° |
| 2026-04-30 18:27 | 49.28328 | 11.43623 | 26296 ft | 440 kts | 354° |
| 2026-04-30 18:27 | 49.31383 | 11.43196 | 26694 ft | 442 kts | 354° |
| 2026-04-30 18:28 | 49.37516 | 11.42334 | 27433 ft | 447 kts | 354° |
| 2026-04-30 18:28 | 49.40625 | 11.41895 | 27777 ft | 450 kts | 354° |
| 2026-04-30 18:28 | 49.46898 | 11.41009 | 28445 ft | 455 kts | 354° |
| 2026-04-30 18:29 | 49.50066 | 11.40561 | 28768 ft | 457 kts | 354° |
| 2026-04-30 18:29 | 49.59635 | 11.39204 | 29722 ft | 463 kts | 354° |
| 2026-04-30 18:30 | 49.66039 | 11.38294 | 30574 ft | 461 kts | 354° |
| 2026-04-30 18:30 | 49.72373 | 11.37391 | 31355 ft | 459 kts | 354° |
| 2026-04-30 18:31 | 49.75564 | 11.36935 | 31730 ft | 458 kts | 354° |
| 2026-04-30 18:31 | 49.81904 | 11.36027 | 32476 ft | 456 kts | 354° |
| 2026-04-30 18:32 | 49.88215 | 11.35121 | 33147 ft | 455 kts | 354° |
| 2026-04-30 18:32 | 49.91364 | 11.34668 | 33468 ft | 454 kts | 354° |
| 2026-04-30 18:32 | 49.97660 | 11.33760 | 34070 ft | 454 kts | 354° |
| 2026-04-30 18:33 | 50.00805 | 11.33306 | 34355 ft | 453 kts | 354° |
| 2026-04-30 18:33 | 50.07081 | 11.32398 | 34918 ft | 452 kts | 354° |
| 2026-04-30 18:33 | 50.10210 | 11.31945 | 35202 ft | 451 kts | 354° |
| 2026-04-30 18:34 | 50.13291 | 11.31498 | 35475 ft | 450 kts | 354° |
| 2026-04-30 18:34 | 50.19522 | 11.30591 | 35951 ft | 450 kts | 354° |
| 2026-04-30 18:35 | 50.25751 | 11.29683 | 36001 ft | 448 kts | 354° |
| 2026-04-30 18:35 | 50.31950 | 11.28777 | 35998 ft | 447 kts | 354° |
| 2026-04-30 18:36 | 50.41240 | 11.27411 | 35998 ft | 448 kts | 354° |
| 2026-04-30 18:37 | 50.50562 | 11.25983 | 36002 ft | 449 kts | 353° |
| 2026-04-30 18:37 | 50.56769 | 11.24889 | 36001 ft | 449 kts | 353° |
| 2026-04-30 18:38 | 50.62979 | 11.23798 | 35997 ft | 448 kts | 353° |
| 2026-04-30 18:38 | 50.69182 | 11.22714 | 36001 ft | 448 kts | 353° |
| 2026-04-30 18:39 | 50.75370 | 11.21632 | 36001 ft | 447 kts | 353° |
| 2026-04-30 18:39 | 50.81553 | 11.20548 | 35998 ft | 447 kts | 353° |
| 2026-04-30 18:40 | 50.87737 | 11.19462 | 35997 ft | 447 kts | 353° |
| 2026-04-30 18:40 | 50.93919 | 11.18373 | 35999 ft | 447 kts | 353° |
| 2026-04-30 18:41 | 51.00072 | 11.17286 | 36003 ft | 447 kts | 353° |
| 2026-04-30 18:41 | 51.05063 | 11.16400 | 35999 ft | 446 kts | 353° |
| 2026-04-30 18:42 | 51.08366 | 11.15815 | 35997 ft | 446 kts | 353° |
| 2026-04-30 18:45 | 51.42231 | 11.09761 | 36000 ft | 446 kts | 353° |
| 2026-04-30 18:46 | 51.48399 | 11.08649 | 35998 ft | 446 kts | 353° |
| 2026-04-30 18:46 | 51.54565 | 11.07532 | 35999 ft | 447 kts | 353° |
| 2026-04-30 18:47 | 51.60747 | 11.06411 | 35999 ft | 447 kts | 353° |
| 2026-04-30 18:47 | 51.66937 | 11.05285 | 36002 ft | 447 kts | 353° |
| 2026-04-30 18:48 | 51.73123 | 11.04158 | 36003 ft | 448 kts | 353° |
| 2026-04-30 18:48 | 51.79310 | 11.03027 | 36001 ft | 446 kts | 353° |
| 2026-04-30 18:49 | 51.85422 | 11.01840 | 36002 ft | 444 kts | 346° |
| 2026-04-30 18:49 | 51.91575 | 11.00697 | 36004 ft | 445 kts | 353° |
| 2026-04-30 18:50 | 51.97738 | 10.99611 | 36000 ft | 446 kts | 353° |
| 2026-04-30 18:50 | 52.03897 | 10.98492 | 36002 ft | 445 kts | 353° |
| 2026-04-30 18:51 | 52.10054 | 10.97356 | 36000 ft | 445 kts | 353° |
| 2026-04-30 18:51 | 52.16208 | 10.96213 | 36000 ft | 445 kts | 353° |
| 2026-04-30 18:52 | 52.22364 | 10.95066 | 35999 ft | 445 kts | 353° |
| 2026-04-30 18:52 | 52.28488 | 10.93921 | 35999 ft | 445 kts | 353° |
| 2026-04-30 18:53 | 52.34652 | 10.92766 | 35998 ft | 447 kts | 353° |
| 2026-04-30 18:53 | 52.40839 | 10.91603 | 36001 ft | 448 kts | 353° |
| 2026-04-30 18:54 | 52.47034 | 10.90435 | 35999 ft | 448 kts | 353° |
| 2026-04-30 18:54 | 52.53224 | 10.89263 | 36008 ft | 448 kts | 353° |
| 2026-04-30 18:54 | 52.56353 | 10.88670 | 35809 ft | 456 kts | 353° |
| 2026-04-30 18:55 | 52.59501 | 10.88073 | 35267 ft | 455 kts | 353° |
| 2026-04-30 18:55 | 52.65774 | 10.86881 | 34011 ft | 453 kts | 353° |
| 2026-04-30 18:55 | 52.68898 | 10.86286 | 33385 ft | 452 kts | 353° |
| 2026-04-30 18:56 | 52.75145 | 10.85093 | 32141 ft | 453 kts | 353° |
| 2026-04-30 18:56 | 52.78277 | 10.84493 | 31511 ft | 455 kts | 353° |
| 2026-04-30 18:56 | 52.81429 | 10.83889 | 30878 ft | 456 kts | 353° |
| 2026-04-30 18:57 | 52.87747 | 10.82672 | 29630 ft | 459 kts | 353° |
| 2026-04-30 18:57 | 52.90926 | 10.82060 | 29002 ft | 460 kts | 353° |
| 2026-04-30 18:57 | 52.94108 | 10.81448 | 28376 ft | 461 kts | 353° |
| 2026-04-30 18:58 | 53.00481 | 10.80218 | 27121 ft | 459 kts | 353° |
| 2026-04-30 18:58 | 53.03650 | 10.79604 | 26494 ft | 455 kts | 353° |
| 2026-04-30 18:58 | 53.06779 | 10.78996 | 25870 ft | 450 kts | 353° |
| 2026-04-30 18:59 | 53.12890 | 10.77809 | 24978 ft | 440 kts | 353° |
| 2026-04-30 19:00 | 53.22129 | 10.76005 | 21750 ft | 455 kts | 353° |
| 2026-04-30 19:00 | 53.25275 | 10.75390 | 20800 ft | 454 kts | 353° |
| 2026-04-30 19:00 | 53.31492 | 10.74173 | 19133 ft | 445 kts | 353° |
| 2026-04-30 19:01 | 53.37573 | 10.72978 | 17485 ft | 434 kts | 353° |
| 2026-04-30 19:01 | 53.40557 | 10.72390 | 16661 ft | 429 kts | 353° |
| 2026-04-30 19:02 | 53.46420 | 10.71231 | 15013 ft | 419 kts | 353° |
| 2026-04-30 19:02 | 53.52154 | 10.70095 | 13362 ft | 409 kts | 353° |
| 2026-04-30 19:03 | 53.57252 | 10.68392 | 11836 ft | 399 kts | 334° |
| 2026-04-30 19:03 | 53.60877 | 10.62001 | 11038 ft | 367 kts | 293° |
| 2026-04-30 19:04 | 53.61378 | 10.54132 | 11009 ft | 322 kts | 258° |
| 2026-04-30 19:04 | 53.60259 | 10.47272 | 11005 ft | 290 kts | 253° |
| 2026-04-30 19:05 | 53.59056 | 10.40817 | 11000 ft | 290 kts | 252° |
| 2026-04-30 19:05 | 53.57825 | 10.34362 | 10959 ft | 288 kts | 252° |
| 2026-04-30 19:06 | 53.56598 | 10.27976 | 10133 ft | 286 kts | 252° |
| 2026-04-30 19:06 | 53.55986 | 10.24801 | 9718 ft | 284 kts | 252° |
| 2026-04-30 19:06 | 53.54975 | 10.19573 | 9025 ft | 281 kts | 252° |
| 2026-04-30 19:07 | 53.53770 | 10.13360 | 8175 ft | 278 kts | 252° |
| 2026-04-30 19:07 | 53.53170 | 10.10278 | 7756 ft | 276 kts | 252° |
| 2026-04-30 19:08 | 53.51984 | 10.04190 | 6926 ft | 273 kts | 252° |
| 2026-04-30 19:08 | 53.50806 | 9.98167 | 6088 ft | 269 kts | 252° |
| 2026-04-30 19:08 | 53.50162 | 9.95227 | 5672 ft | 268 kts | 244° |
| 2026-04-30 19:09 | 53.47985 | 9.90200 | 4853 ft | 265 kts | 231° |
| 2026-04-30 19:09 | 53.47042 | 9.87589 | 4601 ft | 261 kts | 251° |
| 2026-04-30 19:09 | 53.46574 | 9.84640 | 4568 ft | 262 kts | 258° |
| 2026-04-30 19:10 | 53.45714 | 9.78677 | 4563 ft | 263 kts | 258° |
| 2026-04-30 19:10 | 53.44308 | 9.73124 | 4565 ft | 263 kts | 230° |
| 2026-04-30 19:11 | 53.43032 | 9.70915 | 4565 ft | 264 kts | 224° |
| 2026-04-30 19:11 | 53.40173 | 9.67099 | 4562 ft | 265 kts | 200° |
| 2026-04-30 19:11 | 53.38377 | 9.66776 | 4565 ft | 255 kts | 171° |
| 2026-04-30 19:12 | 53.36815 | 9.67895 | 4568 ft | 239 kts | 141° |
| 2026-04-30 19:12 | 53.35724 | 9.69939 | 4571 ft | 236 kts | 126° |
| 2026-04-30 19:12 | 53.34792 | 9.72210 | 4567 ft | 238 kts | 124° |
| 2026-04-30 19:13 | 53.32971 | 9.76815 | 4564 ft | 239 kts | 124° |
| 2026-04-30 19:13 | 53.31686 | 9.81853 | 4563 ft | 238 kts | 86° |
| 2026-04-30 19:13 | 53.32093 | 9.84519 | 4571 ft | 237 kts | 67° |
| 2026-04-30 19:14 | 53.32758 | 9.87014 | 4566 ft | 239 kts | 64° |
| 2026-04-30 19:14 | 53.33472 | 9.89524 | 4567 ft | 239 kts | 64° |
| 2026-04-30 19:14 | 53.34191 | 9.92035 | 4566 ft | 239 kts | 64° |
| 2026-04-30 19:14 | 53.34912 | 9.94557 | 4566 ft | 239 kts | 64° |
| 2026-04-30 19:15 | 53.35630 | 9.97068 | 4564 ft | 239 kts | 64° |
| 2026-04-30 19:15 | 53.37376 | 10.01766 | 4565 ft | 238 kts | 50° |
| 2026-04-30 19:15 | 53.38442 | 10.03898 | 4565 ft | 238 kts | 49° |
| 2026-04-30 19:16 | 53.39514 | 10.06016 | 4565 ft | 238 kts | 49° |
| 2026-04-30 19:16 | 53.40588 | 10.08136 | 4565 ft | 239 kts | 49° |
| 2026-04-30 19:16 | 53.42735 | 10.12375 | 4565 ft | 238 kts | 49° |
| 2026-04-30 19:17 | 53.43809 | 10.14497 | 4565 ft | 238 kts | 49° |
| 2026-04-30 19:17 | 53.45952 | 10.18738 | 4569 ft | 238 kts | 49° |
| 2026-04-30 19:17 | 53.47025 | 10.20863 | 4569 ft | 238 kts | 49° |
| 2026-04-30 19:18 | 53.48811 | 10.24396 | 4565 ft | 238 kts | 49° |
| 2026-04-30 19:18 | 53.50246 | 10.27240 | 4565 ft | 239 kts | 49° |
| 2026-04-30 19:18 | 53.51318 | 10.29369 | 4568 ft | 239 kts | 49° |
| 2026-04-30 19:19 | 53.52391 | 10.31497 | 4565 ft | 239 kts | 49° |
| 2026-04-30 19:19 | 53.53468 | 10.33626 | 4567 ft | 238 kts | 47° |
| 2026-04-30 19:19 | 53.56396 | 10.35400 | 4567 ft | 232 kts | 345° |
| 2026-04-30 19:20 | 53.57872 | 10.34345 | 4567 ft | 232 kts | 329° |
| 2026-04-30 19:20 | 53.59250 | 10.32914 | 4568 ft | 233 kts | 326° |
| 2026-04-30 19:20 | 53.61959 | 10.29963 | 4571 ft | 233 kts | 326° |
| 2026-04-30 19:21 | 53.63298 | 10.28411 | 4564 ft | 233 kts | 316° |
| 2026-04-30 19:21 | 53.64148 | 10.23507 | 4567 ft | 229 kts | 252° |
| 2026-04-30 19:22 | 53.62343 | 10.19085 | 4568 ft | 232 kts | 229° |
| 2026-04-30 19:22 | 53.59124 | 10.12954 | 4564 ft | 232 kts | 229° |
| 2026-04-30 19:23 | 53.55922 | 10.06881 | 4574 ft | 231 kts | 229° |
| 2026-04-30 19:24 | 53.53784 | 10.02828 | 4564 ft | 232 kts | 229° |
| 2026-04-30 19:24 | 53.52713 | 10.00803 | 4564 ft | 232 kts | 229° |
| 2026-04-30 19:24 | 53.50582 | 9.96772 | 4565 ft | 232 kts | 229° |
| 2026-04-30 19:25 | 53.47366 | 9.90694 | 4565 ft | 232 kts | 229° |
| 2026-04-30 19:26 | 53.45224 | 9.86649 | 4566 ft | 232 kts | 229° |
| 2026-04-30 19:26 | 53.43075 | 9.82599 | 4565 ft | 232 kts | 229° |
| 2026-04-30 19:26 | 53.42003 | 9.80579 | 4565 ft | 232 kts | 229° |
| 2026-04-30 19:27 | 53.39857 | 9.76538 | 4565 ft | 232 kts | 229° |
| 2026-04-30 19:27 | 53.37708 | 9.72493 | 4564 ft | 232 kts | 229° |
| 2026-04-30 19:28 | 53.36915 | 9.70181 | 4562 ft | 231 kts | 256° |
| 2026-04-30 19:28 | 53.37832 | 9.65307 | 4569 ft | 232 kts | 316° |
| 2026-04-30 19:29 | 53.40407 | 9.62038 | 4565 ft | 233 kts | 324° |
| 2026-04-30 19:29 | 53.41797 | 9.60643 | 4563 ft | 234 kts | 340° |
| 2026-04-30 19:30 | 53.46456 | 9.62517 | 4569 ft | 238 kts | 24° |
| 2026-04-30 19:30 | 53.49544 | 9.64915 | 4566 ft | 247 kts | 26° |
| 2026-04-30 19:31 | 53.51508 | 9.69367 | 4570 ft | 249 kts | 78° |
| 2026-04-30 19:31 | 53.51758 | 9.72240 | 4357 ft | 248 kts | 83° |
| 2026-04-30 19:31 | 53.52623 | 9.77760 | 3419 ft | 245 kts | 58° |
| 2026-04-30 19:32 | 53.53672 | 9.80001 | 2975 ft | 243 kts | 47° |
| 2026-04-30 19:32 | 53.54795 | 9.82109 | 2641 ft | 242 kts | 49° |
| 2026-04-30 19:32 | 53.55863 | 9.84287 | 2565 ft | 238 kts | 49° |
| 2026-04-30 19:32 | 53.56893 | 9.86346 | 2260 ft | 230 kts | 47° |
| 2026-04-30 19:33 | 53.57994 | 9.88429 | 1638 ft | 250 kts | 50° |
| 2026-04-30 19:33 | 53.59176 | 9.90887 | 1096 ft | 294 kts | 50° |
| 2026-04-30 19:33 | 53.60395 | 9.93488 | 507 ft | 289 kts | 51° |
| 2026-04-30 19:33 | 53.61638 | 9.95971 | 235 ft | 268 kts | 49° |
| 2026-04-30 19:34 | 53.62782 | 9.98343 | 53 ft | 250 kts | 52° |